sensor_id;sensor_type;location;lat;lon;timestamp;temperature;humidity
20432;DHT22;10375;49.136;10.366;2023-03-14T00:01:52;8.60;99.90
20432;DHT22;10375;49.136;10.366;2023-03-14T00:04:26;8.60;99.90
20432;DHT22;10375;49.136;10.366;2023-03-14T00:06:55;8.60;99.90
20432;DHT22;10375;49.136;10.366;2023-03-14T00:09:49;8.60;99.90
20432;DHT22;10375;49.136;10.366;2023-03-14T00:12:23;8.60;99.90
20432;DHT22;10375;49.136;10.366;2023-03-14T00:14:57;8.50;99.90
20432;DHT22;10375;49.136;10.366;2023-03-14T00:17:24;8.60;99.90
20432;DHT22;10375;49.136;10.366;2023-03-14T00:19:54;8.50;99.90
20432;DHT22;10375;49.136;10.366;2023-03-14T00:22:21;8.60;99.90
20432;DHT22;10375;49.136;10.366;2023-03-14T00:24:48;8.50;99.90
20432;DHT22;10375;49.136;10.366;2023-03-14T00:27:22;8.50;99.90
20432;DHT22;10375;49.136;10.366;2023-03-14T00:29:49;8.50;99.90
20432;DHT22;10375;49.136;10.366;2023-03-14T00:32:16;8.50;99.90
20432;DHT22;10375;49.136;10.366;2023-03-14T00:34:43;8.50;99.90
20432;DHT22;10375;49.136;10.366;2023-03-14T00:37:11;8.50;99.90
20432;DHT22;10375;49.136;10.366;2023-03-14T00:39:38;8.60;99.90
20432;DHT22;10375;49.136;10.366;2023-03-14T00:42:06;8.50;99.90
20432;DHT22;10375;49.136;10.366;2023-03-14T00:44:33;8.60;99.90
20432;DHT22;10375;49.136;10.366;2023-03-14T00:47:07;8.60;99.90
20432;DHT22;10375;49.136;10.366;2023-03-14T00:50:04;8.50;99.90
20432;DHT22;10375;49.136;10.366;2023-03-14T00:52:33;8.60;99.90
20432;DHT22;10375;49.136;10.366;2023-03-14T00:55:19;8.60;99.90
20432;DHT22;10375;49.136;10.366;2023-03-14T00:58:13;8.60;99.90
20432;DHT22;10375;49.136;10.366;2023-03-14T01:01:39;8.60;99.90
20432;DHT22;10375;49.136;10.366;2023-03-14T01:04:59;8.60;99.90
20432;DHT22;10375;49.136;10.366;2023-03-14T01:08:32;8.70;99.90
20432;DHT22;10375;49.136;10.366;2023-03-14T01:13:57;8.70;99.90
20432;DHT22;10375;49.136;10.366;2023-03-14T01:16:26;8.70;99.90
20432;DHT22;10375;49.136;10.366;2023-03-14T01:18:53;8.70;99.90
20432;DHT22;10375;49.136;10.366;2023-03-14T01:21:41;8.70;99.90
20432;DHT22;10375;49.136;10.366;2023-03-14T01:24:11;8.70;99.90
20432;DHT22;10375;49.136;10.366;2023-03-14T01:26:38;8.70;99.90
20432;DHT22;10375;49.136;10.366;2023-03-14T01:29:05;8.70;99.90
20432;DHT22;10375;49.136;10.366;2023-03-14T01:31:32;8.70;99.90
20432;DHT22;10375;49.136;10.366;2023-03-14T01:33:59;8.80;99.90
20432;DHT22;10375;49.136;10.366;2023-03-14T01:36:27;8.80;99.90
20432;DHT22;10375;49.136;10.366;2023-03-14T01:38:57;8.80;99.90
20432;DHT22;10375;49.136;10.366;2023-03-14T01:41:25;8.70;99.90
20432;DHT22;10375;49.136;10.366;2023-03-14T01:43:52;8.80;99.90
20432;DHT22;10375;49.136;10.366;2023-03-14T01:49:18;8.80;99.90
20432;DHT22;10375;49.136;10.366;2023-03-14T01:54:33;8.70;99.90
20432;DHT22;10375;49.136;10.366;2023-03-14T01:57:28;8.70;99.90
20432;DHT22;10375;49.136;10.366;2023-03-14T02:00:10;8.60;99.90
20432;DHT22;10375;49.136;10.366;2023-03-14T02:02:46;8.60;99.90
20432;DHT22;10375;49.136;10.366;2023-03-14T02:05:17;8.60;99.90
20432;DHT22;10375;49.136;10.366;2023-03-14T02:07:46;8.50;99.90
20432;DHT22;10375;49.136;10.366;2023-03-14T02:10:17;8.60;99.90
20432;DHT22;10375;49.136;10.366;2023-03-14T02:12:47;8.50;99.90
20432;DHT22;10375;49.136;10.366;2023-03-14T02:15:15;8.50;99.90
20432;DHT22;10375;49.136;10.366;2023-03-14T02:17:43;8.40;99.90
20432;DHT22;10375;49.136;10.366;2023-03-14T02:22:53;8.40;99.90
20432;DHT22;10375;49.136;10.366;2023-03-14T02:25:47;8.30;99.90
20432;DHT22;10375;49.136;10.366;2023-03-14T02:28:17;8.30;99.90
20432;DHT22;10375;49.136;10.366;2023-03-14T02:30:44;8.30;99.90
20432;DHT22;10375;49.136;10.366;2023-03-14T02:33:14;8.30;99.90
20432;DHT22;10375;49.136;10.366;2023-03-14T02:35:59;8.20;99.90
20432;DHT22;10375;49.136;10.366;2023-03-14T02:41:10;8.30;99.90
20432;DHT22;10375;49.136;10.366;2023-03-14T02:43:37;8.30;99.90
20432;DHT22;10375;49.136;10.366;2023-03-14T02:46:05;8.20;99.90
20432;DHT22;10375;49.136;10.366;2023-03-14T02:48:39;8.20;99.90
20432;DHT22;10375;49.136;10.366;2023-03-14T02:51:08;8.20;99.90
20432;DHT22;10375;49.136;10.366;2023-03-14T02:53:36;8.20;99.90
20432;DHT22;10375;49.136;10.366;2023-03-14T02:56:04;8.20;99.90
20432;DHT22;10375;49.136;10.366;2023-03-14T02:58:31;8.20;99.90
20432;DHT22;10375;49.136;10.366;2023-03-14T03:00:58;8.30;99.90
20432;DHT22;10375;49.136;10.366;2023-03-14T03:03:25;8.30;99.90
20432;DHT22;10375;49.136;10.366;2023-03-14T03:05:54;8.30;99.90
20432;DHT22;10375;49.136;10.366;2023-03-14T03:08:24;8.40;99.90
20432;DHT22;10375;49.136;10.366;2023-03-14T03:10:52;8.40;99.90
20432;DHT22;10375;49.136;10.366;2023-03-14T03:13:20;8.40;99.90
20432;DHT22;10375;49.136;10.366;2023-03-14T03:15:47;8.50;99.90
20432;DHT22;10375;49.136;10.366;2023-03-14T03:18:14;8.50;99.90
20432;DHT22;10375;49.136;10.366;2023-03-14T03:20:41;8.50;99.90
20432;DHT22;10375;49.136;10.366;2023-03-14T03:23:09;8.50;99.90
20432;DHT22;10375;49.136;10.366;2023-03-14T03:25:36;8.50;99.90
20432;DHT22;10375;49.136;10.366;2023-03-14T03:28:03;8.40;99.90
20432;DHT22;10375;49.136;10.366;2023-03-14T03:30:38;8.40;99.90
20432;DHT22;10375;49.136;10.366;2023-03-14T03:33:05;8.30;99.90
20432;DHT22;10375;49.136;10.366;2023-03-14T03:35:32;8.30;99.90
20432;DHT22;10375;49.136;10.366;2023-03-14T03:38:00;8.20;99.90
20432;DHT22;10375;49.136;10.366;2023-03-14T03:40:27;8.20;99.90
20432;DHT22;10375;49.136;10.366;2023-03-14T03:42:54;8.30;99.90
20432;DHT22;10375;49.136;10.366;2023-03-14T03:45:21;8.20;99.90
20432;DHT22;10375;49.136;10.366;2023-03-14T03:47:48;8.20;99.90
20432;DHT22;10375;49.136;10.366;2023-03-14T03:50:15;8.20;99.90
20432;DHT22;10375;49.136;10.366;2023-03-14T03:52:42;8.20;99.90
20432;DHT22;10375;49.136;10.366;2023-03-14T03:55:09;8.10;99.90
20432;DHT22;10375;49.136;10.366;2023-03-14T03:57:36;8.10;99.90
20432;DHT22;10375;49.136;10.366;2023-03-14T04:00:05;8.10;99.90
20432;DHT22;10375;49.136;10.366;2023-03-14T04:02:33;8.10;99.90
20432;DHT22;10375;49.136;10.366;2023-03-14T04:05:00;8.10;99.90
20432;DHT22;10375;49.136;10.366;2023-03-14T04:07:27;8.10;99.90
20432;DHT22;10375;49.136;10.366;2023-03-14T04:09:54;8.10;99.90
20432;DHT22;10375;49.136;10.366;2023-03-14T04:12:21;8.10;99.90
20432;DHT22;10375;49.136;10.366;2023-03-14T04:14:48;8.10;99.90
20432;DHT22;10375;49.136;10.366;2023-03-14T04:17:15;8.20;99.90
20432;DHT22;10375;49.136;10.366;2023-03-14T04:19:43;8.10;99.90
20432;DHT22;10375;49.136;10.366;2023-03-14T04:22:10;8.10;99.90
20432;DHT22;10375;49.136;10.366;2023-03-14T04:24:37;8.10;99.90
20432;DHT22;10375;49.136;10.366;2023-03-14T04:27:04;8.10;99.90
20432;DHT22;10375;49.136;10.366;2023-03-14T04:29:33;8.00;99.90
20432;DHT22;10375;49.136;10.366;2023-03-14T04:32:00;8.00;99.90
20432;DHT22;10375;49.136;10.366;2023-03-14T04:34:27;8.00;99.90
20432;DHT22;10375;49.136;10.366;2023-03-14T04:36:54;8.00;99.90
20432;DHT22;10375;49.136;10.366;2023-03-14T04:39:21;8.10;99.90
20432;DHT22;10375;49.136;10.366;2023-03-14T04:41:48;8.20;99.90
20432;DHT22;10375;49.136;10.366;2023-03-14T04:44:16;8.20;99.90
20432;DHT22;10375;49.136;10.366;2023-03-14T04:46:43;8.30;99.90
20432;DHT22;10375;49.136;10.366;2023-03-14T04:49:10;8.30;99.90
20432;DHT22;10375;49.136;10.366;2023-03-14T04:51:38;8.30;99.90
20432;DHT22;10375;49.136;10.366;2023-03-14T04:54:05;8.30;99.90
20432;DHT22;10375;49.136;10.366;2023-03-14T04:56:32;8.30;99.90
20432;DHT22;10375;49.136;10.366;2023-03-14T04:58:59;8.30;99.90
20432;DHT22;10375;49.136;10.366;2023-03-14T05:01:26;8.30;99.90
20432;DHT22;10375;49.136;10.366;2023-03-14T05:03:54;8.30;99.90
20432;DHT22;10375;49.136;10.366;2023-03-14T05:06:21;8.30;99.90
20432;DHT22;10375;49.136;10.366;2023-03-14T05:08:48;8.30;99.90
20432;DHT22;10375;49.136;10.366;2023-03-14T05:11:15;8.30;99.90
20432;DHT22;10375;49.136;10.366;2023-03-14T05:13:42;8.30;99.90
20432;DHT22;10375;49.136;10.366;2023-03-14T05:16:10;8.30;99.90
20432;DHT22;10375;49.136;10.366;2023-03-14T05:18:37;8.30;99.90
20432;DHT22;10375;49.136;10.366;2023-03-14T05:21:05;8.20;99.90
20432;DHT22;10375;49.136;10.366;2023-03-14T05:23:32;8.20;99.90
20432;DHT22;10375;49.136;10.366;2023-03-14T05:25:59;8.20;99.90
20432;DHT22;10375;49.136;10.366;2023-03-14T05:28:27;8.20;99.90
20432;DHT22;10375;49.136;10.366;2023-03-14T05:30:57;8.20;99.90
20432;DHT22;10375;49.136;10.366;2023-03-14T05:33:24;8.20;99.90
20432;DHT22;10375;49.136;10.366;2023-03-14T05:35:51;8.20;99.90
20432;DHT22;10375;49.136;10.366;2023-03-14T05:38:18;8.20;99.90
20432;DHT22;10375;49.136;10.366;2023-03-14T05:40:45;8.20;99.90
20432;DHT22;10375;49.136;10.366;2023-03-14T05:43:13;8.10;99.90
20432;DHT22;10375;49.136;10.366;2023-03-14T05:45:42;8.20;99.90
20432;DHT22;10375;49.136;10.366;2023-03-14T05:48:09;8.20;99.90
20432;DHT22;10375;49.136;10.366;2023-03-14T05:50:37;8.20;99.90
20432;DHT22;10375;49.136;10.366;2023-03-14T05:53:04;8.20;99.90
20432;DHT22;10375;49.136;10.366;2023-03-14T05:55:31;8.20;99.90
20432;DHT22;10375;49.136;10.366;2023-03-14T05:57:58;8.20;99.90
20432;DHT22;10375;49.136;10.366;2023-03-14T06:00:25;8.10;99.90
20432;DHT22;10375;49.136;10.366;2023-03-14T06:02:52;8.10;99.90
20432;DHT22;10375;49.136;10.366;2023-03-14T06:05:19;8.10;99.90
20432;DHT22;10375;49.136;10.366;2023-03-14T06:07:46;8.10;99.90
20432;DHT22;10375;49.136;10.366;2023-03-14T06:10:13;8.10;99.90
20432;DHT22;10375;49.136;10.366;2023-03-14T06:12:40;8.10;99.90
20432;DHT22;10375;49.136;10.366;2023-03-14T06:15:07;8.10;99.90
20432;DHT22;10375;49.136;10.366;2023-03-14T06:17:34;8.20;99.90
20432;DHT22;10375;49.136;10.366;2023-03-14T06:20:04;8.20;99.90
20432;DHT22;10375;49.136;10.366;2023-03-14T06:22:31;8.30;99.90
20432;DHT22;10375;49.136;10.366;2023-03-14T06:24:58;8.30;99.90
20432;DHT22;10375;49.136;10.366;2023-03-14T06:27:25;8.30;99.90
20432;DHT22;10375;49.136;10.366;2023-03-14T06:29:54;8.40;99.90
20432;DHT22;10375;49.136;10.366;2023-03-14T06:32:21;8.30;99.90
20432;DHT22;10375;49.136;10.366;2023-03-14T06:34:48;8.40;99.90
20432;DHT22;10375;49.136;10.366;2023-03-14T06:37:15;8.40;99.90
20432;DHT22;10375;49.136;10.366;2023-03-14T06:39:49;8.40;99.90
20432;DHT22;10375;49.136;10.366;2023-03-14T06:42:26;8.50;99.90
20432;DHT22;10375;49.136;10.366;2023-03-14T06:44:53;8.40;99.90
20432;DHT22;10375;49.136;10.366;2023-03-14T06:47:21;8.50;99.90
20432;DHT22;10375;49.136;10.366;2023-03-14T06:50:02;8.50;99.90
20432;DHT22;10375;49.136;10.366;2023-03-14T06:52:30;8.50;99.90
20432;DHT22;10375;49.136;10.366;2023-03-14T06:54:58;8.60;99.90
20432;DHT22;10375;49.136;10.366;2023-03-14T06:57:25;8.60;99.90
20432;DHT22;10375;49.136;10.366;2023-03-14T06:59:52;8.60;99.90
20432;DHT22;10375;49.136;10.366;2023-03-14T07:02:19;8.70;99.90
20432;DHT22;10375;49.136;10.366;2023-03-14T07:05:06;8.80;99.90
20432;DHT22;10375;49.136;10.366;2023-03-14T07:07:34;8.80;99.90
20432;DHT22;10375;49.136;10.366;2023-03-14T07:10:02;8.90;99.90
20432;DHT22;10375;49.136;10.366;2023-03-14T07:12:31;9.00;99.90
20432;DHT22;10375;49.136;10.366;2023-03-14T07:14:59;9.10;99.90
20432;DHT22;10375;49.136;10.366;2023-03-14T07:17:44;9.10;99.90
20432;DHT22;10375;49.136;10.366;2023-03-14T07:20:12;9.20;99.90
20432;DHT22;10375;49.136;10.366;2023-03-14T07:22:40;9.30;99.90
20432;DHT22;10375;49.136;10.366;2023-03-14T07:25:09;9.70;99.90
20432;DHT22;10375;49.136;10.366;2023-03-14T07:27:38;10.30;99.90
20432;DHT22;10375;49.136;10.366;2023-03-14T07:30:06;10.90;99.90
20432;DHT22;10375;49.136;10.366;2023-03-14T07:32:36;10.80;99.90
20432;DHT22;10375;49.136;10.366;2023-03-14T07:35:04;11.20;99.90
20432;DHT22;10375;49.136;10.366;2023-03-14T07:37:31;12.40;99.90
20432;DHT22;10375;49.136;10.366;2023-03-14T07:39:58;12.50;99.90
20432;DHT22;10375;49.136;10.366;2023-03-14T07:42:26;12.90;99.90
20432;DHT22;10375;49.136;10.366;2023-03-14T07:44:53;12.90;99.90
20432;DHT22;10375;49.136;10.366;2023-03-14T07:47:24;12.60;99.90
20432;DHT22;10375;49.136;10.366;2023-03-14T07:49:58;13.20;99.90
20432;DHT22;10375;49.136;10.366;2023-03-14T07:52:25;13.90;99.90
20432;DHT22;10375;49.136;10.366;2023-03-14T07:54:53;14.60;99.90
20432;DHT22;10375;49.136;10.366;2023-03-14T07:57:21;15.40;99.90
20432;DHT22;10375;49.136;10.366;2023-03-14T07:59:49;15.60;99.90
20432;DHT22;10375;49.136;10.366;2023-03-14T08:02:18;16.10;99.90
20432;DHT22;10375;49.136;10.366;2023-03-14T08:04:50;15.80;99.90
20432;DHT22;10375;49.136;10.366;2023-03-14T08:07:17;14.40;99.90
20432;DHT22;10375;49.136;10.366;2023-03-14T08:09:44;15.10;99.90
20432;DHT22;10375;49.136;10.366;2023-03-14T08:12:11;15.80;99.90
20432;DHT22;10375;49.136;10.366;2023-03-14T08:14:38;15.40;99.90
20432;DHT22;10375;49.136;10.366;2023-03-14T08:17:11;14.40;99.90
20432;DHT22;10375;49.136;10.366;2023-03-14T08:19:38;13.20;99.90
20432;DHT22;10375;49.136;10.366;2023-03-14T08:22:13;12.20;99.90
20432;DHT22;10375;49.136;10.366;2023-03-14T08:24:42;11.80;99.90
20432;DHT22;10375;49.136;10.366;2023-03-14T08:27:11;11.70;99.90
20432;DHT22;10375;49.136;10.366;2023-03-14T08:29:39;11.40;99.90
20432;DHT22;10375;49.136;10.366;2023-03-14T08:32:11;11.30;99.90
20432;DHT22;10375;49.136;10.366;2023-03-14T08:34:38;11.10;99.90
20432;DHT22;10375;49.136;10.366;2023-03-14T08:37:06;11.10;99.90
20432;DHT22;10375;49.136;10.366;2023-03-14T08:39:51;11.10;99.90
20432;DHT22;10375;49.136;10.366;2023-03-14T08:42:18;11.20;99.90
20432;DHT22;10375;49.136;10.366;2023-03-14T08:44:46;11.40;99.90
20432;DHT22;10375;49.136;10.366;2023-03-14T08:47:13;11.60;99.90
20432;DHT22;10375;49.136;10.366;2023-03-14T08:49:42;11.60;99.90
20432;DHT22;10375;49.136;10.366;2023-03-14T08:52:10;11.40;99.90
20432;DHT22;10375;49.136;10.366;2023-03-14T08:54:37;11.70;99.90
20432;DHT22;10375;49.136;10.366;2023-03-14T08:57:05;11.90;99.90
20432;DHT22;10375;49.136;10.366;2023-03-14T08:59:32;12.10;99.90
20432;DHT22;10375;49.136;10.366;2023-03-14T09:01:59;12.60;99.90
20432;DHT22;10375;49.136;10.366;2023-03-14T09:04:26;13.00;99.90
20432;DHT22;10375;49.136;10.366;2023-03-14T09:06:53;13.40;99.90
20432;DHT22;10375;49.136;10.366;2023-03-14T09:09:20;13.50;99.90
20432;DHT22;10375;49.136;10.366;2023-03-14T09:11:48;13.60;99.90
20432;DHT22;10375;49.136;10.366;2023-03-14T09:14:15;13.80;99.90
20432;DHT22;10375;49.136;10.366;2023-03-14T09:16:42;13.80;99.90
20432;DHT22;10375;49.136;10.366;2023-03-14T09:19:10;13.80;99.90
20432;DHT22;10375;49.136;10.366;2023-03-14T09:21:37;13.50;99.90
20432;DHT22;10375;49.136;10.366;2023-03-14T09:24:05;13.20;99.90
20432;DHT22;10375;49.136;10.366;2023-03-14T09:26:33;13.10;99.90
20432;DHT22;10375;49.136;10.366;2023-03-14T09:29:02;13.10;99.90
20432;DHT22;10375;49.136;10.366;2023-03-14T09:31:30;12.80;99.90
20432;DHT22;10375;49.136;10.366;2023-03-14T09:33:57;12.60;99.90
20432;DHT22;10375;49.136;10.366;2023-03-14T09:36:25;12.60;99.90
20432;DHT22;10375;49.136;10.366;2023-03-14T09:38:52;12.50;99.90
20432;DHT22;10375;49.136;10.366;2023-03-14T09:41:39;12.50;99.90
20432;DHT22;10375;49.136;10.366;2023-03-14T09:44:18;12.40;99.90
20432;DHT22;10375;49.136;10.366;2023-03-14T09:46:50;12.30;99.90
20432;DHT22;10375;49.136;10.366;2023-03-14T09:49:25;12.20;99.90
20432;DHT22;10375;49.136;10.366;2023-03-14T09:51:56;12.30;99.90
20432;DHT22;10375;49.136;10.366;2023-03-14T09:54:47;12.20;99.90
20432;DHT22;10375;49.136;10.366;2023-03-14T09:57:24;12.20;99.90
20432;DHT22;10375;49.136;10.366;2023-03-14T09:59:57;12.00;99.90
20432;DHT22;10375;49.136;10.366;2023-03-14T10:02:31;12.00;99.90
20432;DHT22;10375;49.136;10.366;2023-03-14T10:05:00;11.90;99.90
20432;DHT22;10375;49.136;10.366;2023-03-14T10:07:33;12.10;99.90
20432;DHT22;10375;49.136;10.366;2023-03-14T10:10:00;12.20;99.90
20432;DHT22;10375;49.136;10.366;2023-03-14T10:12:35;12.40;99.90
20432;DHT22;10375;49.136;10.366;2023-03-14T10:15:08;12.30;99.90
20432;DHT22;10375;49.136;10.366;2023-03-14T10:17:44;12.20;99.90
20432;DHT22;10375;49.136;10.366;2023-03-14T10:20:37;12.30;99.90
20432;DHT22;10375;49.136;10.366;2023-03-14T10:23:05;12.70;99.90
20432;DHT22;10375;49.136;10.366;2023-03-14T10:25:35;13.00;99.90
20432;DHT22;10375;49.136;10.366;2023-03-14T10:28:25;13.20;99.90
20432;DHT22;10375;49.136;10.366;2023-03-14T10:30:52;13.30;99.90
20432;DHT22;10375;49.136;10.366;2023-03-14T10:33:31;13.50;99.90
20432;DHT22;10375;49.136;10.366;2023-03-14T10:38:30;13.30;99.90
20432;DHT22;10375;49.136;10.366;2023-03-14T10:40:58;13.30;99.90
20432;DHT22;10375;49.136;10.366;2023-03-14T10:43:30;13.20;99.90
20432;DHT22;10375;49.136;10.366;2023-03-14T10:46:31;13.00;99.90
20432;DHT22;10375;49.136;10.366;2023-03-14T10:49:05;12.70;99.90
20432;DHT22;10375;49.136;10.366;2023-03-14T10:51:32;12.30;99.90
20432;DHT22;10375;49.136;10.366;2023-03-14T10:54:15;12.30;99.90
20432;DHT22;10375;49.136;10.366;2023-03-14T10:56:59;12.50;99.90
20432;DHT22;10375;49.136;10.366;2023-03-14T10:59:32;12.80;99.90
20432;DHT22;10375;49.136;10.366;2023-03-14T11:02:35;13.50;99.90
20432;DHT22;10375;49.136;10.366;2023-03-14T11:05:41;13.70;99.90
20432;DHT22;10375;49.136;10.366;2023-03-14T11:08:37;13.60;99.90
20432;DHT22;10375;49.136;10.366;2023-03-14T11:11:20;13.90;99.90
20432;DHT22;10375;49.136;10.366;2023-03-14T11:16:33;13.70;99.90
20432;DHT22;10375;49.136;10.366;2023-03-14T11:19:16;13.70;99.90
20432;DHT22;10375;49.136;10.366;2023-03-14T11:24:24;13.00;99.90
20432;DHT22;10375;49.136;10.366;2023-03-14T11:27:13;13.10;99.90
20432;DHT22;10375;49.136;10.366;2023-03-14T11:34:54;14.30;99.90
20432;DHT22;10375;49.136;10.366;2023-03-14T11:37:26;14.50;99.90
20432;DHT22;10375;49.136;10.366;2023-03-14T11:42:32;13.90;99.90
20432;DHT22;10375;49.136;10.366;2023-03-14T11:45:00;13.90;99.90
20432;DHT22;10375;49.136;10.366;2023-03-14T11:47:40;13.70;99.90
20432;DHT22;10375;49.136;10.366;2023-03-14T11:52:56;13.70;99.90
20432;DHT22;10375;49.136;10.366;2023-03-14T11:55:32;13.70;99.90
20432;DHT22;10375;49.136;10.366;2023-03-14T11:58:23;13.70;99.90
20432;DHT22;10375;49.136;10.366;2023-03-14T12:00:54;13.50;99.90
20432;DHT22;10375;49.136;10.366;2023-03-14T12:03:52;13.30;99.90
20432;DHT22;10375;49.136;10.366;2023-03-14T12:06:40;13.20;99.90
20432;DHT22;10375;49.136;10.366;2023-03-14T12:09:12;13.00;99.90
20432;DHT22;10375;49.136;10.366;2023-03-14T12:14:35;13.00;99.90
20432;DHT22;10375;49.136;10.366;2023-03-14T12:17:19;12.90;99.90
20432;DHT22;10375;49.136;10.366;2023-03-14T12:20:03;12.70;99.90
20432;DHT22;10375;49.136;10.366;2023-03-14T12:22:42;12.60;99.90
20432;DHT22;10375;49.136;10.366;2023-03-14T12:25:18;12.20;99.90
20432;DHT22;10375;49.136;10.366;2023-03-14T12:30:34;11.70;99.90
20432;DHT22;10375;49.136;10.366;2023-03-14T12:36:02;11.20;99.90
20432;DHT22;10375;49.136;10.366;2023-03-14T12:43:47;11.10;99.90
20432;DHT22;10375;49.136;10.366;2023-03-14T12:48:53;10.90;99.90
20432;DHT22;10375;49.136;10.366;2023-03-14T12:51:39;10.70;99.90
20432;DHT22;10375;49.136;10.366;2023-03-14T13:02:24;10.20;99.90
20432;DHT22;10375;49.136;10.366;2023-03-14T13:13:23;10.10;99.90
20432;DHT22;10375;49.136;10.366;2023-03-14T13:15:57;10.00;99.90
20432;DHT22;10375;49.136;10.366;2023-03-14T13:18:40;10.00;99.90
20432;DHT22;10375;49.136;10.366;2023-03-14T13:21:12;10.20;99.90
20432;DHT22;10375;49.136;10.366;2023-03-14T13:23:40;10.40;99.90
20432;DHT22;10375;49.136;10.366;2023-03-14T13:26:14;10.50;99.90
20432;DHT22;10375;49.136;10.366;2023-03-14T13:28:43;10.50;99.90
20432;DHT22;10375;49.136;10.366;2023-03-14T13:31:21;10.50;99.90
20432;DHT22;10375;49.136;10.366;2023-03-14T13:34:04;10.20;99.90
20432;DHT22;10375;49.136;10.366;2023-03-14T13:36:31;10.10;99.90
20432;DHT22;10375;49.136;10.366;2023-03-14T13:39:00;10.10;99.90
20432;DHT22;10375;49.136;10.366;2023-03-14T13:41:29;9.90;99.90
20432;DHT22;10375;49.136;10.366;2023-03-14T13:46:49;9.80;99.90
20432;DHT22;10375;49.136;10.366;2023-03-14T13:49:24;9.80;99.90
20432;DHT22;10375;49.136;10.366;2023-03-14T13:51:53;9.70;99.90
20432;DHT22;10375;49.136;10.366;2023-03-14T13:54:21;9.50;99.90
20432;DHT22;10375;49.136;10.366;2023-03-14T13:56:59;9.40;99.90
20432;DHT22;10375;49.136;10.366;2023-03-14T13:59:31;9.30;99.90
20432;DHT22;10375;49.136;10.366;2023-03-14T14:02:00;9.10;99.90
20432;DHT22;10375;49.136;10.366;2023-03-14T14:04:32;8.80;99.90
20432;DHT22;10375;49.136;10.366;2023-03-14T14:07:08;8.60;99.90
20432;DHT22;10375;49.136;10.366;2023-03-14T14:09:38;8.50;99.90
20432;DHT22;10375;49.136;10.366;2023-03-14T14:12:10;8.40;99.90
20432;DHT22;10375;49.136;10.366;2023-03-14T14:14:56;8.20;99.90
20432;DHT22;10375;49.136;10.366;2023-03-14T14:17:45;8.00;99.90
20432;DHT22;10375;49.136;10.366;2023-03-14T14:20:40;8.00;99.90
20432;DHT22;10375;49.136;10.366;2023-03-14T14:23:24;7.90;99.90
20432;DHT22;10375;49.136;10.366;2023-03-14T14:25:52;7.90;99.90
20432;DHT22;10375;49.136;10.366;2023-03-14T14:28:32;7.80;99.90
20432;DHT22;10375;49.136;10.366;2023-03-14T14:33:57;7.60;99.90
20432;DHT22;10375;49.136;10.366;2023-03-14T14:36:31;7.60;99.90
20432;DHT22;10375;49.136;10.366;2023-03-14T14:39:21;7.60;99.90
20432;DHT22;10375;49.136;10.366;2023-03-14T14:41:50;7.70;99.90
20432;DHT22;10375;49.136;10.366;2023-03-14T14:44:38;7.70;99.90
20432;DHT22;10375;49.136;10.366;2023-03-14T14:47:05;7.80;99.90
20432;DHT22;10375;49.136;10.366;2023-03-14T14:49:33;7.70;99.90
20432;DHT22;10375;49.136;10.366;2023-03-14T14:52:11;7.70;99.90
20432;DHT22;10375;49.136;10.366;2023-03-14T14:55:16;7.70;99.90
20432;DHT22;10375;49.136;10.366;2023-03-14T14:57:55;7.80;99.90
20432;DHT22;10375;49.136;10.366;2023-03-14T15:00:26;7.80;99.90
20432;DHT22;10375;49.136;10.366;2023-03-14T15:03:00;7.80;99.90
20432;DHT22;10375;49.136;10.366;2023-03-14T15:05:28;7.80;99.90
20432;DHT22;10375;49.136;10.366;2023-03-14T15:07:57;7.80;99.90
20432;DHT22;10375;49.136;10.366;2023-03-14T15:10:25;7.80;99.90
20432;DHT22;10375;49.136;10.366;2023-03-14T15:12:53;7.70;99.90
20432;DHT22;10375;49.136;10.366;2023-03-14T15:15:20;7.70;99.90
20432;DHT22;10375;49.136;10.366;2023-03-14T15:17:47;7.80;99.90
20432;DHT22;10375;49.136;10.366;2023-03-14T15:20:16;7.80;99.90
20432;DHT22;10375;49.136;10.366;2023-03-14T15:22:43;7.70;99.90
20432;DHT22;10375;49.136;10.366;2023-03-14T15:25:11;7.80;99.90
20432;DHT22;10375;49.136;10.366;2023-03-14T15:27:58;7.80;99.90
20432;DHT22;10375;49.136;10.366;2023-03-14T15:30:25;7.80;99.90
20432;DHT22;10375;49.136;10.366;2023-03-14T15:32:52;7.80;99.90
20432;DHT22;10375;49.136;10.366;2023-03-14T15:35:20;7.80;99.90
20432;DHT22;10375;49.136;10.366;2023-03-14T15:37:47;7.80;99.90
20432;DHT22;10375;49.136;10.366;2023-03-14T15:40:18;7.80;99.90
20432;DHT22;10375;49.136;10.366;2023-03-14T15:42:45;7.80;99.90
20432;DHT22;10375;49.136;10.366;2023-03-14T15:45:13;7.80;99.90
20432;DHT22;10375;49.136;10.366;2023-03-14T15:47:40;7.80;99.90
20432;DHT22;10375;49.136;10.366;2023-03-14T15:50:09;7.80;99.90
20432;DHT22;10375;49.136;10.366;2023-03-14T15:52:37;7.80;99.90
20432;DHT22;10375;49.136;10.366;2023-03-14T15:55:04;7.70;99.90
20432;DHT22;10375;49.136;10.366;2023-03-14T15:57:33;7.60;99.90
20432;DHT22;10375;49.136;10.366;2023-03-14T16:00:00;7.50;99.90
20432;DHT22;10375;49.136;10.366;2023-03-14T16:02:27;7.40;99.90
20432;DHT22;10375;49.136;10.366;2023-03-14T16:04:54;7.40;99.90
20432;DHT22;10375;49.136;10.366;2023-03-14T16:07:22;7.30;99.90
20432;DHT22;10375;49.136;10.366;2023-03-14T16:09:56;7.40;99.90
20432;DHT22;10375;49.136;10.366;2023-03-14T16:12:23;7.30;99.90
20432;DHT22;10375;49.136;10.366;2023-03-14T16:14:50;7.30;99.90
20432;DHT22;10375;49.136;10.366;2023-03-14T16:17:17;7.40;99.90
20432;DHT22;10375;49.136;10.366;2023-03-14T16:19:44;7.50;99.90
20432;DHT22;10375;49.136;10.366;2023-03-14T16:22:12;7.50;99.90
20432;DHT22;10375;49.136;10.366;2023-03-14T16:24:38;7.50;99.90
20432;DHT22;10375;49.136;10.366;2023-03-14T16:27:06;7.60;99.90
20432;DHT22;10375;49.136;10.366;2023-03-14T16:29:34;7.80;99.90
20432;DHT22;10375;49.136;10.366;2023-03-14T16:32:01;7.90;99.90
20432;DHT22;10375;49.136;10.366;2023-03-14T16:34:30;8.10;99.90
20432;DHT22;10375;49.136;10.366;2023-03-14T16:36:58;8.20;99.90
20432;DHT22;10375;49.136;10.366;2023-03-14T16:39:29;8.20;99.90
20432;DHT22;10375;49.136;10.366;2023-03-14T16:41:58;8.20;99.90
20432;DHT22;10375;49.136;10.366;2023-03-14T16:44:25;8.10;99.90
20432;DHT22;10375;49.136;10.366;2023-03-14T16:46:53;7.90;99.90
20432;DHT22;10375;49.136;10.366;2023-03-14T16:49:23;7.60;99.90
20432;DHT22;10375;49.136;10.366;2023-03-14T16:51:50;7.50;99.90
20432;DHT22;10375;49.136;10.366;2023-03-14T16:54:17;7.30;99.90
20432;DHT22;10375;49.136;10.366;2023-03-14T16:56:44;7.20;99.90
20432;DHT22;10375;49.136;10.366;2023-03-14T16:59:14;7.20;99.90
20432;DHT22;10375;49.136;10.366;2023-03-14T17:01:41;7.10;99.90
20432;DHT22;10375;49.136;10.366;2023-03-14T17:04:10;7.10;99.90